createdAt,value
2023-04-19T00:00:17.353Z,4.00
2023-04-19T00:01:20.741Z,4.00
2023-04-19T00:02:23.305Z,3.10
2023-04-19T00:03:26.282Z,3.50
2023-04-19T00:04:29.040Z,3.50
2023-04-19T00:05:31.464Z,3.30
2023-04-19T00:06:33.773Z,3.60
2023-04-19T00:07:36.035Z,3.20
2023-04-19T00:08:38.107Z,3.20
2023-04-19T00:09:40.261Z,2.67
2023-04-19T00:10:42.424Z,3.20
2023-04-19T00:11:44.765Z,3.70
2023-04-19T00:12:46.826Z,2.80
2023-04-19T00:13:48.994Z,2.80
2023-04-19T00:14:51.077Z,3.30
2023-04-19T00:15:53.129Z,3.00
2023-04-19T00:16:55.311Z,2.70
2023-04-19T00:17:57.555Z,2.50
2023-04-19T00:18:59.627Z,3.00
2023-04-19T00:20:01.812Z,2.60
2023-04-19T00:21:04.563Z,3.70
2023-04-19T00:22:06.720Z,3.50
2023-04-19T00:23:08.902Z,3.40
2023-04-19T00:24:11.129Z,3.50
2023-04-19T00:25:13.292Z,3.00
2023-04-19T00:26:16.682Z,2.80
2023-04-19T00:27:20.860Z,3.10
2023-04-19T00:28:24.523Z,2.20
2023-04-19T00:29:26.938Z,3.10
2023-04-19T00:30:29.192Z,2.70
2023-04-19T00:31:33.352Z,3.40
2023-04-19T00:32:35.553Z,2.70
2023-04-19T00:33:37.704Z,3.30
2023-04-19T00:34:40.407Z,3.50
2023-04-19T00:35:42.673Z,2.90
2023-04-19T00:36:45.025Z,2.80
2023-04-19T00:37:48.424Z,3.20
2023-04-19T00:38:50.978Z,3.00
2023-04-19T00:39:53.373Z,3.60
2023-04-19T00:40:55.747Z,2.80
2023-04-19T00:41:57.961Z,3.50
2023-04-19T00:43:00.223Z,3.30
2023-04-19T00:44:02.400Z,3.00
2023-04-19T00:45:05.655Z,2.70
2023-04-19T00:46:08.728Z,2.50
2023-04-19T00:47:12.231Z,3.50
2023-04-19T00:48:15.384Z,3.50
2023-04-19T00:49:19.555Z,3.27
2023-04-19T00:50:22.323Z,3.80
2023-04-19T00:51:24.958Z,3.40
2023-04-19T00:52:28.353Z,2.90
2023-04-19T00:53:33.158Z,3.70
2023-04-19T00:54:36.875Z,3.90
2023-04-19T00:55:39.829Z,2.90
2023-04-19T00:56:44.044Z,3.70
2023-04-19T00:57:47.327Z,4.10
2023-04-19T00:58:51.604Z,4.40
2023-04-19T00:59:55.835Z,4.40
2023-04-19T01:00:58.708Z,4.10
2023-04-19T01:02:01.798Z,3.20
2023-04-19T01:03:05.164Z,3.00
2023-04-19T01:04:09.038Z,3.00
2023-04-19T01:05:11.670Z,4.00
2023-04-19T01:06:15.447Z,3.40
2023-04-19T01:07:18.791Z,3.60
2023-04-19T01:08:20.915Z,3.20
2023-04-19T01:09:23.587Z,3.00
2023-04-19T01:10:26.165Z,0.00
2023-04-19T01:11:28.896Z,3.00
2023-04-19T01:12:31.763Z,3.30
2023-04-19T01:13:34.021Z,3.30
2023-04-19T01:14:36.273Z,3.00
2023-04-19T01:15:38.969Z,3.20
2023-04-19T01:16:41.600Z,3.73
2023-04-19T01:17:44.769Z,4.30
2023-04-19T01:18:48.284Z,3.90
2023-04-19T01:21:05.187Z,3.80
2023-04-19T01:22:07.613Z,3.90
2023-04-19T01:23:11.775Z,3.60
2023-04-19T01:24:14.391Z,3.90
2023-04-19T01:25:16.888Z,3.64
2023-04-19T01:26:20.825Z,4.00
2023-04-19T01:27:23.088Z,4.00
2023-04-19T01:28:26.191Z,3.00
2023-04-19T01:29:28.799Z,3.90
2023-04-19T01:30:30.941Z,3.60
2023-04-19T01:31:33.581Z,4.44
2023-04-19T01:32:36.146Z,3.50
2023-04-19T01:33:38.292Z,3.90
2023-04-19T01:34:42.513Z,3.50
2023-04-19T01:35:45.237Z,3.10
2023-04-19T01:36:47.523Z,3.70
2023-04-19T01:37:49.839Z,3.40
2023-04-19T01:38:52.534Z,3.10
2023-04-19T01:39:54.822Z,3.20
2023-04-19T01:40:57.079Z,3.80
2023-04-19T01:42:00.395Z,3.82
2023-04-19T01:43:02.778Z,3.50
2023-04-19T01:44:04.964Z,4.20
2023-04-19T01:45:07.715Z,3.44
2023-04-19T01:46:10.297Z,4.80
2023-04-19T01:47:13.682Z,4.00
2023-04-19T01:48:16.081Z,4.90
2023-04-19T01:49:18.255Z,4.30
2023-04-19T01:50:20.644Z,4.80
2023-04-19T01:51:22.712Z,3.40
2023-04-19T01:52:25.074Z,4.70
2023-04-19T01:53:27.171Z,4.90
2023-04-19T01:54:29.353Z,4.00
2023-04-19T01:55:31.629Z,5.30
2023-04-19T01:56:33.897Z,4.20
2023-04-19T01:57:37.117Z,5.60
2023-04-19T01:58:39.875Z,2.50
2023-04-19T01:59:42.037Z,5.10
2023-04-19T02:00:44.210Z,1.30
2023-04-19T02:01:46.930Z,4.90
2023-04-19T02:02:50.273Z,5.50
2023-04-19T02:03:52.560Z,4.40
2023-04-19T02:04:55.388Z,5.45
2023-04-19T02:05:57.656Z,5.10
2023-04-19T02:06:59.947Z,5.20
2023-04-19T02:08:04.102Z,5.00
2023-04-19T02:09:06.295Z,4.90
2023-04-19T02:10:10.462Z,5.09
2023-04-19T02:11:13.983Z,5.00
2023-04-19T02:12:16.775Z,5.70
2023-04-19T02:13:20.412Z,6.00
2023-04-19T02:14:22.648Z,5.30
2023-04-19T02:15:24.976Z,5.70
2023-04-19T02:16:27.760Z,5.10
2023-04-19T02:17:30.354Z,5.70
2023-04-19T02:18:33.346Z,5.73
2023-04-19T02:19:35.634Z,5.90
2023-04-19T02:20:37.877Z,5.80
2023-04-19T02:21:40.134Z,6.50
2023-04-19T02:22:42.393Z,5.80
2023-04-19T02:23:46.511Z,6.10
2023-04-19T02:25:59.365Z,8.90
2023-04-19T02:27:02.066Z,7.10
2023-04-19T02:28:04.508Z,7.40
2023-04-19T02:29:07.334Z,6.64
2023-04-19T02:30:11.881Z,6.70
2023-04-19T02:31:14.220Z,6.73
2023-04-19T02:32:16.907Z,8.10
2023-04-19T02:33:19.123Z,6.90
2023-04-19T02:34:21.377Z,6.60
2023-04-19T02:35:23.686Z,7.10
2023-04-19T02:36:26.029Z,6.60
2023-04-19T02:37:28.202Z,7.20
2023-04-19T02:38:32.216Z,6.70
2023-04-19T02:39:34.487Z,6.60
2023-04-19T02:40:36.789Z,8.10
2023-04-19T02:41:38.932Z,7.20
2023-04-19T02:42:41.118Z,7.00
2023-04-19T02:43:43.347Z,6.00
2023-04-19T02:44:47.416Z,7.40
2023-04-19T02:45:50.882Z,7.60
2023-04-19T02:46:54.093Z,7.00
2023-04-19T02:47:57.048Z,6.80
2023-04-19T02:49:02.522Z,6.91
2023-04-19T02:50:06.411Z,7.10
2023-04-19T02:51:17.050Z,7.40
2023-04-19T02:52:19.942Z,6.80
2023-04-19T02:53:22.249Z,7.45
2023-04-19T02:54:24.616Z,6.80
2023-04-19T02:55:27.330Z,7.70
2023-04-19T02:56:31.564Z,7.60
2023-04-19T02:57:34.121Z,6.40
2023-04-19T02:58:36.797Z,7.60
2023-04-19T02:59:40.432Z,6.60
2023-04-19T03:00:43.342Z,8.00
2023-04-19T03:01:47.455Z,7.90
2023-04-19T03:02:50.354Z,7.70
2023-04-19T03:03:53.340Z,7.30
2023-04-19T03:04:55.884Z,7.30
2023-04-19T03:05:58.738Z,8.50
2023-04-19T03:07:01.349Z,5.60
2023-04-19T03:08:03.831Z,7.00
2023-04-19T03:09:06.390Z,5.90
2023-04-19T03:10:09.587Z,7.10
2023-04-19T03:11:12.659Z,7.50
2023-04-19T03:12:15.033Z,7.60
2023-04-19T03:13:17.878Z,8.27
2023-04-19T03:14:19.964Z,7.50
2023-04-19T03:15:22.821Z,7.30
2023-04-19T03:16:25.196Z,6.90
2023-04-19T03:17:27.624Z,8.60
2023-04-19T03:18:30.406Z,7.50
2023-04-19T03:19:33.318Z,6.73
2023-04-19T03:20:35.657Z,7.45
2023-04-19T03:21:37.797Z,7.00
2023-04-19T03:22:40.518Z,8.20
2023-04-19T03:23:43.566Z,6.10
2023-04-19T03:24:45.992Z,6.60
2023-04-19T03:25:52.999Z,8.70
2023-04-19T03:27:03.068Z,9.30
2023-04-19T03:28:05.832Z,7.64
2023-04-19T03:30:31.288Z,8.70
2023-04-19T03:31:34.719Z,7.91
2023-04-19T03:32:36.986Z,8.60
2023-04-19T03:33:39.856Z,9.00
2023-04-19T03:34:42.106Z,9.10
2023-04-19T03:35:44.748Z,8.10
2023-04-19T03:36:47.649Z,10.40
2023-04-19T03:37:50.359Z,9.70
2023-04-19T03:38:52.688Z,9.90
2023-04-19T03:39:56.588Z,8.30
2023-04-19T03:41:00.683Z,9.70
2023-04-19T03:42:04.336Z,10.40
2023-04-19T03:43:20.090Z,9.40
2023-04-19T03:44:22.947Z,8.80
2023-04-19T03:45:25.333Z,9.30
2023-04-19T03:46:27.704Z,9.30
2023-04-19T03:47:30.491Z,9.00
2023-04-19T03:48:33.105Z,7.91
2023-04-19T03:49:35.333Z,8.36
2023-04-19T03:50:39.539Z,8.20
2023-04-19T03:51:41.633Z,10.00
2023-04-19T03:52:44.017Z,9.00
2023-04-19T03:53:47.235Z,8.00
2023-04-19T03:54:51.859Z,6.20
2023-04-19T03:56:02.195Z,8.00
2023-04-19T03:57:05.087Z,8.27
2023-04-19T03:58:07.996Z,5.70
2023-04-19T03:59:12.106Z,7.30
2023-04-19T04:00:15.216Z,7.20
2023-04-19T04:01:22.224Z,7.00
2023-04-19T04:02:25.428Z,6.40
2023-04-19T04:03:28.061Z,5.60
2023-04-19T04:04:33.113Z,5.09
2023-04-19T04:05:37.553Z,6.10
2023-04-19T04:06:40.667Z,5.70
2023-04-19T04:07:44.165Z,5.00
2023-04-19T04:08:46.997Z,5.10
2023-04-19T04:09:49.255Z,5.00
2023-04-19T04:10:53.946Z,5.10
2023-04-19T04:11:57.084Z,5.10
2023-04-19T04:12:59.910Z,5.20
2023-04-19T04:14:06.510Z,5.20
2023-04-19T04:15:10.995Z,5.60
2023-04-19T04:16:15.785Z,4.30
2023-04-19T04:17:18.320Z,4.91
2023-04-19T04:18:21.147Z,6.10
2023-04-19T04:19:23.546Z,5.20
2023-04-19T04:20:25.920Z,5.10
2023-04-19T04:21:30.292Z,5.80
2023-04-19T04:22:34.277Z,5.40
2023-04-19T04:23:36.555Z,5.20
2023-04-19T04:24:39.899Z,5.30
2023-04-19T04:25:43.972Z,5.30
2023-04-19T04:26:49.007Z,4.40
2023-04-19T04:27:55.921Z,5.00
2023-04-19T04:29:00.365Z,5.70
2023-04-19T04:30:02.714Z,6.40
2023-04-19T04:31:06.185Z,7.40
2023-04-19T04:32:09.193Z,8.60
2023-04-19T04:33:13.330Z,9.20
2023-04-19T04:34:16.933Z,9.20
2023-04-19T04:35:22.365Z,7.30
2023-04-19T04:36:26.481Z,8.30
2023-04-19T04:37:32.297Z,4.80
2023-04-19T04:38:34.623Z,6.30
2023-04-19T04:39:37.297Z,5.80
2023-04-19T04:40:39.462Z,5.00
2023-04-19T04:41:41.587Z,4.67
2023-04-19T04:42:56.914Z,3.90
2023-04-19T04:44:12.232Z,3.00
2023-04-19T04:45:04.223Z,2.60
2023-04-19T04:46:07.169Z,3.20
2023-04-19T04:47:13.066Z,2.40
2023-04-19T04:48:18.043Z,2.90
2023-04-19T04:49:20.223Z,3.00
2023-04-19T04:50:22.691Z,3.00
2023-04-19T04:51:25.573Z,3.70
2023-04-19T04:52:29.570Z,3.73
2023-04-19T04:53:36.528Z,2.90
2023-04-19T04:54:39.626Z,4.00
2023-04-19T04:55:44.050Z,3.90
2023-04-19T04:56:47.666Z,4.40
2023-04-19T04:57:50.913Z,3.20
2023-04-19T04:58:54.936Z,3.40
2023-04-19T04:59:58.944Z,3.90
2023-04-19T05:01:02.997Z,3.40
2023-04-19T05:02:06.799Z,3.60
2023-04-19T05:03:09.457Z,2.70
2023-04-19T05:04:14.371Z,3.00
2023-04-19T05:05:18.430Z,2.80
2023-04-19T05:06:20.521Z,1.20
2023-04-19T05:07:23.253Z,2.20
2023-04-19T05:08:26.084Z,2.91
2023-04-19T05:09:30.239Z,2.30
2023-04-19T05:10:32.977Z,3.00
2023-04-19T05:11:35.336Z,2.50
2023-04-19T05:12:37.899Z,2.70
2023-04-19T05:13:40.186Z,3.00
2023-04-19T05:14:42.688Z,2.60
2023-04-19T05:15:45.850Z,6.00
2023-04-19T05:16:49.199Z,6.70
2023-04-19T05:17:51.588Z,6.60
2023-04-19T05:18:54.107Z,5.30
2023-04-19T05:19:57.174Z,5.09
2023-04-19T05:20:59.964Z,4.00
2023-04-19T05:22:04.089Z,4.10
2023-04-19T05:23:06.430Z,2.40
2023-04-19T05:24:09.393Z,3.00
2023-04-19T05:25:11.828Z,2.80
2023-04-19T05:26:15.034Z,3.80
2023-04-19T05:27:18.568Z,6.50
2023-04-19T05:28:20.890Z,7.60
2023-04-19T05:29:27.540Z,8.30
2023-04-19T05:30:31.009Z,7.90
2023-04-19T05:31:33.402Z,5.80
2023-04-19T05:32:39.700Z,4.30
2023-04-19T05:33:43.772Z,0.20
2023-04-19T05:34:46.030Z,3.30
2023-04-19T05:35:50.258Z,4.00
2023-04-19T05:36:52.676Z,9.09
2023-04-19T05:37:55.408Z,13.30
2023-04-19T05:38:57.824Z,13.60
2023-04-19T05:40:00.928Z,9.70
2023-04-19T05:41:04.742Z,7.00
2023-04-19T05:42:07.467Z,5.20
2023-04-19T05:43:10.451Z,3.36
2023-04-19T05:44:13.417Z,3.10
2023-04-19T05:45:16.545Z,3.80
2023-04-19T05:46:19.065Z,3.10
2023-04-19T05:47:21.303Z,3.30
2023-04-19T05:48:34.126Z,2.90
2023-04-19T05:49:43.635Z,3.10
2023-04-19T05:50:47.784Z,2.70
2023-04-19T05:51:54.495Z,3.20
2023-04-19T05:53:05.317Z,2.40
2023-04-19T05:54:07.683Z,3.55
2023-04-19T05:55:10.482Z,3.00
2023-04-19T05:56:14.745Z,3.00
2023-04-19T05:57:17.089Z,2.20
2023-04-19T05:58:20.012Z,1.70
2023-04-19T05:59:22.213Z,2.00
2023-04-19T06:00:25.032Z,1.70
2023-04-19T06:01:30.221Z,2.00
2023-04-19T06:02:32.748Z,2.80
2023-04-19T06:03:37.130Z,1.90
2023-04-19T06:04:40.096Z,2.80
2023-04-19T06:05:42.772Z,1.50
2023-04-19T06:06:45.059Z,2.50
2023-04-19T06:07:55.306Z,2.10
2023-04-19T06:08:54.969Z,2.40
2023-04-19T06:09:57.917Z,3.30
2023-04-19T06:11:08.119Z,2.00
2023-04-19T06:12:05.817Z,2.00
2023-04-19T06:13:08.503Z,2.80
2023-04-19T06:14:11.848Z,2.60
2023-04-19T06:15:14.141Z,2.40
2023-04-19T06:16:16.955Z,2.10
2023-04-19T06:17:19.288Z,1.90
2023-04-19T06:18:21.491Z,3.10
2023-04-19T06:19:23.574Z,2.40
2023-04-19T06:20:25.843Z,3.50
2023-04-19T06:21:30.272Z,2.00
2023-04-19T06:22:32.516Z,2.90
2023-04-19T06:23:34.667Z,2.60
2023-04-19T06:24:36.724Z,2.60
2023-04-19T06:25:38.898Z,3.10
2023-04-19T06:26:41.149Z,2.90
2023-04-19T06:27:43.307Z,3.00
2023-04-19T06:28:45.506Z,2.50
2023-04-19T06:29:49.327Z,2.50
2023-04-19T06:30:52.068Z,2.30
2023-04-19T06:31:54.271Z,2.20
2023-04-19T06:32:56.949Z,2.50
2023-04-19T06:33:59.887Z,3.50
2023-04-19T06:35:02.037Z,2.80
2023-04-19T06:36:05.266Z,2.50
2023-04-19T06:37:07.569Z,2.00
2023-04-19T06:38:10.229Z,2.00
2023-04-19T06:39:12.760Z,2.20
2023-04-19T06:40:17.120Z,2.50
2023-04-19T06:41:21.222Z,3.00
2023-04-19T06:42:23.417Z,3.10
2023-04-19T06:43:25.476Z,1.70
2023-04-19T06:44:27.931Z,2.78
2023-04-19T06:45:30.076Z,2.40
2023-04-19T06:46:32.834Z,3.10
2023-04-19T06:47:36.308Z,2.30
2023-04-19T06:48:38.497Z,2.20
2023-04-19T06:49:40.535Z,2.50
2023-04-19T06:50:43.372Z,2.90
2023-04-19T06:51:46.879Z,2.00
2023-04-19T06:52:49.144Z,2.70
2023-04-19T06:53:51.447Z,2.80
2023-04-19T06:54:53.653Z,2.80
2023-04-19T06:56:01.502Z,2.90
2023-04-19T06:57:03.954Z,2.30
2023-04-19T06:58:06.540Z,1.70
2023-04-19T06:59:09.229Z,3.30
2023-04-19T07:00:12.831Z,2.40
2023-04-19T07:01:14.956Z,2.00
2023-04-19T07:02:17.720Z,1.70
2023-04-19T07:03:21.853Z,2.82
2023-04-19T07:04:26.827Z,3.00
2023-04-19T07:05:31.699Z,2.27
2023-04-19T07:07:44.067Z,3.10
2023-04-19T07:08:50.349Z,2.18
2023-04-19T07:09:50.430Z,3.00
2023-04-19T07:10:52.727Z,3.20
2023-04-19T07:11:54.874Z,2.50
2023-04-19T07:12:57.551Z,3.30
2023-04-19T07:13:59.905Z,2.60
2023-04-19T07:15:02.388Z,2.70
2023-04-19T07:16:05.794Z,2.80
2023-04-19T07:17:08.635Z,1.90
2023-04-19T07:18:10.790Z,2.70
2023-04-19T07:19:13.948Z,3.10
2023-04-19T07:20:16.545Z,2.10
2023-04-19T07:21:18.873Z,2.20
2023-04-19T07:22:21.524Z,3.10
2023-04-19T07:23:23.581Z,2.50
2023-04-19T07:24:26.463Z,2.60
2023-04-19T07:25:28.923Z,2.60
2023-04-19T07:26:31.574Z,3.20
2023-04-19T07:27:33.751Z,3.40
2023-04-19T07:28:35.998Z,3.50
2023-04-19T07:29:38.576Z,2.80
2023-04-19T07:30:40.902Z,2.10
2023-04-19T07:31:43.147Z,3.00
2023-04-19T07:32:45.413Z,2.40
2023-04-19T07:33:48.021Z,2.40
2023-04-19T07:34:50.460Z,3.00
2023-04-19T07:35:52.985Z,2.70
2023-04-19T07:36:55.722Z,2.40
2023-04-19T07:37:57.876Z,2.80
2023-04-19T07:39:00.635Z,2.70
2023-04-19T07:40:03.217Z,2.00
2023-04-19T07:41:05.775Z,2.80
2023-04-19T07:42:07.965Z,1.80
2023-04-19T07:43:11.146Z,2.50
2023-04-19T07:44:13.387Z,2.10
2023-04-19T07:45:16.406Z,2.80
2023-04-19T07:46:18.908Z,2.10
2023-04-19T07:47:21.150Z,3.00
2023-04-19T07:48:23.319Z,2.50
2023-04-19T07:49:26.452Z,2.20
2023-04-19T07:50:28.736Z,2.60
2023-04-19T07:51:31.010Z,2.60
2023-04-19T07:52:33.842Z,1.70
2023-04-19T07:53:36.617Z,3.18
2023-04-19T07:54:38.689Z,2.70
2023-04-19T07:55:40.617Z,2.10
2023-04-19T07:56:43.292Z,2.00
2023-04-19T07:57:45.416Z,2.70
2023-04-19T07:58:56.552Z,2.80
2023-04-19T07:59:51.503Z,2.00
2023-04-19T08:00:53.575Z,2.40
2023-04-19T08:01:56.842Z,2.60
2023-04-19T08:03:00.173Z,2.20
2023-04-19T08:04:02.832Z,2.30
2023-04-19T08:05:06.118Z,2.20
2023-04-19T08:06:08.927Z,2.20
2023-04-19T08:07:10.859Z,2.40
2023-04-19T08:08:12.997Z,1.00
2023-04-19T08:09:15.484Z,2.80
2023-04-19T08:10:17.853Z,1.90
2023-04-19T08:11:20.015Z,2.20
2023-04-19T08:12:34.470Z,2.00
2023-04-19T08:13:26.785Z,2.60
2023-04-19T08:14:40.377Z,2.40
2023-04-19T08:16:04.930Z,2.30
2023-04-19T08:17:43.293Z,2.80
2023-04-19T08:18:45.712Z,1.90
2023-04-19T08:19:49.194Z,1.80
2023-04-19T08:20:51.296Z,2.70
2023-04-19T08:21:53.904Z,1.70
2023-04-19T08:22:56.350Z,2.00
2023-04-19T08:23:58.997Z,2.10
2023-04-19T08:25:01.144Z,2.30
2023-04-19T08:26:03.603Z,2.10
2023-04-19T08:27:05.977Z,1.90
2023-04-19T08:28:08.252Z,2.60
2023-04-19T08:29:10.454Z,2.50
2023-04-19T08:30:15.130Z,1.90
2023-04-19T08:31:17.455Z,2.30
2023-04-19T08:32:19.546Z,2.30
2023-04-19T08:33:21.880Z,2.70
2023-04-19T08:34:24.070Z,2.60
2023-04-19T08:35:26.328Z,2.40
2023-04-19T08:36:39.455Z,1.30
2023-04-19T08:37:40.999Z,1.80
2023-04-19T08:39:04.223Z,1.90
2023-04-19T08:40:04.322Z,1.60
2023-04-19T08:41:14.375Z,2.30
2023-04-19T08:43:32.501Z,2.10
2023-04-19T08:44:42.258Z,0.00
2023-04-19T08:45:51.024Z,2.27
2023-04-19T08:46:54.882Z,0.00
2023-04-19T08:48:01.901Z,1.50
2023-04-19T08:49:09.780Z,1.80
2023-04-19T08:50:28.904Z,1.20
2023-04-19T08:52:58.622Z,1.90
2023-04-19T08:53:59.812Z,1.50
2023-04-19T08:56:27.867Z,2.00
2023-04-19T08:57:18.377Z,1.90
2023-04-19T08:58:32.869Z,1.90
2023-04-19T08:59:24.738Z,2.20
2023-04-19T09:00:27.480Z,2.10
2023-04-19T09:04:10.283Z,3.00
2023-04-19T09:05:05.604Z,2.80
2023-04-19T09:06:09.033Z,2.70
2023-04-19T09:07:25.954Z,3.00
2023-04-19T09:08:31.284Z,3.30
2023-04-19T09:09:39.216Z,2.30
2023-04-19T09:10:42.196Z,2.30
2023-04-19T09:11:44.495Z,2.20
2023-04-19T09:13:04.421Z,1.50
2023-04-19T09:15:25.578Z,2.10
2023-04-19T09:16:27.839Z,2.40
2023-04-19T09:17:32.033Z,1.90
2023-04-19T09:18:42.564Z,1.90
2023-04-19T09:19:46.657Z,1.90
2023-04-19T09:20:48.960Z,1.80
2023-04-19T09:21:51.588Z,1.40
2023-04-19T09:24:15.327Z,1.30
2023-04-19T09:26:31.295Z,1.20
2023-04-19T09:27:35.639Z,1.91
2023-04-19T09:28:37.819Z,1.30
2023-04-19T09:29:40.201Z,1.30
2023-04-19T09:30:58.191Z,1.10
2023-04-19T09:31:59.041Z,1.40
2023-04-19T09:33:01.485Z,1.50
2023-04-19T09:34:17.708Z,2.00
2023-04-19T09:35:19.903Z,2.00
2023-04-19T09:36:32.351Z,1.40
2023-04-19T09:38:49.705Z,1.20
2023-04-19T09:39:52.511Z,1.50
2023-04-19T09:41:08.426Z,1.18
2023-04-19T09:42:10.706Z,1.80
2023-04-19T09:43:40.495Z,1.10
2023-04-19T09:45:29.994Z,1.20
2023-04-19T09:46:33.369Z,1.50
2023-04-19T09:47:35.502Z,1.20
2023-04-19T09:48:37.629Z,1.30
2023-04-19T09:49:48.379Z,1.44
2023-04-19T09:51:02.357Z,1.30
2023-04-19T09:52:04.490Z,0.70
2023-04-19T09:53:06.857Z,1.80
2023-04-19T09:54:11.246Z,1.70
2023-04-19T09:55:24.969Z,1.30
2023-04-19T09:56:18.978Z,1.80
2023-04-19T09:57:21.184Z,1.91
2023-04-19T09:58:23.860Z,1.60
2023-04-19T09:59:26.633Z,1.40
2023-04-19T10:00:36.060Z,2.30
2023-04-19T10:01:42.493Z,1.50
2023-04-19T10:02:45.691Z,1.40
2023-04-19T10:03:49.964Z,2.30
2023-04-19T10:05:11.156Z,1.20
2023-04-19T10:06:06.757Z,1.40
2023-04-19T10:07:25.394Z,1.40
2023-04-19T10:08:12.607Z,0.90
2023-04-19T10:09:15.316Z,1.70
2023-04-19T10:10:21.409Z,0.20
2023-04-19T10:11:26.439Z,1.90
2023-04-19T10:12:58.458Z,1.50
2023-04-19T10:13:37.180Z,2.70
2023-04-19T10:14:41.912Z,2.30
2023-04-19T10:15:51.403Z,2.10
2023-04-19T10:16:50.662Z,1.80
2023-04-19T10:17:53.406Z,1.80
2023-04-19T10:18:57.182Z,1.30
2023-04-19T10:20:03.110Z,2.10
2023-04-19T10:21:07.849Z,0.90
2023-04-19T10:22:12.438Z,2.20
2023-04-19T10:23:15.407Z,1.60
2023-04-19T10:24:18.091Z,1.73
2023-04-19T10:25:24.392Z,2.20
2023-04-19T10:26:27.188Z,1.50
2023-04-19T10:27:29.142Z,2.70
2023-04-19T10:28:31.345Z,2.00
2023-04-19T10:30:04.168Z,1.80
2023-04-19T10:31:10.937Z,1.40
2023-04-19T10:32:14.068Z,1.90
2023-04-19T10:33:25.243Z,1.90
2023-04-19T10:34:38.847Z,2.20
2023-04-19T10:35:44.147Z,1.20
2023-04-19T10:36:46.311Z,1.60
2023-04-19T10:38:13.027Z,1.20
2023-04-19T10:39:40.774Z,1.60
2023-04-19T10:40:55.466Z,2.10
2023-04-19T10:41:58.109Z,2.10
2023-04-19T10:43:14.792Z,2.10
2023-04-19T10:44:17.026Z,2.30
2023-04-19T10:45:33.274Z,1.10
2023-04-19T10:46:38.644Z,1.20
2023-04-19T10:47:43.512Z,1.70
2023-04-19T10:48:55.324Z,1.20
2023-04-19T10:49:57.455Z,1.90
2023-04-19T10:51:02.766Z,2.10
2023-04-19T10:52:06.823Z,1.80
2023-04-19T10:53:32.624Z,2.60
2023-04-19T10:54:37.571Z,0.80
2023-04-19T10:55:43.324Z,1.40
2023-04-19T10:57:01.760Z,1.90
2023-04-19T10:58:05.582Z,1.80
2023-04-19T10:59:12.921Z,2.00
2023-04-19T11:00:21.061Z,2.50
2023-04-19T11:01:35.812Z,2.00
2023-04-19T11:02:38.215Z,2.40
2023-04-19T11:03:47.419Z,2.60
2023-04-19T11:04:53.420Z,2.10
2023-04-19T11:07:26.300Z,2.30
2023-04-19T11:08:28.761Z,3.00
2023-04-19T11:09:40.205Z,1.70
2023-04-19T11:10:43.890Z,3.30
2023-04-19T11:11:46.504Z,3.10
2023-04-19T11:12:50.456Z,2.10
2023-04-19T11:13:57.040Z,2.70
2023-04-19T11:14:59.352Z,2.10
2023-04-19T11:16:09.392Z,2.80
2023-04-19T11:17:29.160Z,3.20
2023-04-19T11:18:33.561Z,2.90
2023-04-19T11:19:35.863Z,3.30
2023-04-19T11:20:38.133Z,2.30
2023-04-19T11:21:40.944Z,2.30
2023-04-19T11:22:46.111Z,2.60
2023-04-19T11:23:48.690Z,3.10
2023-04-19T11:24:51.353Z,3.10
2023-04-19T11:25:54.874Z,2.40
2023-04-19T11:26:57.508Z,2.80
2023-04-19T11:27:59.794Z,3.90
2023-04-19T11:29:02.274Z,2.50
2023-04-19T11:30:07.369Z,2.20
2023-04-19T11:31:10.506Z,2.90
2023-04-19T11:32:12.842Z,2.90
2023-04-19T11:33:14.987Z,0.20
2023-04-19T11:34:17.546Z,2.80
2023-04-19T11:35:22.025Z,3.10
2023-04-19T11:36:24.818Z,2.60
2023-04-19T11:37:30.959Z,2.90
2023-04-19T11:38:32.972Z,2.80
2023-04-19T11:39:38.945Z,3.33
2023-04-19T11:40:42.178Z,3.00
2023-04-19T11:41:44.799Z,2.90
2023-04-19T11:42:55.789Z,2.60
2023-04-19T11:43:59.316Z,2.00
2023-04-19T11:45:02.002Z,2.50
2023-04-19T11:46:11.873Z,3.20
2023-04-19T11:47:14.640Z,2.40
2023-04-19T11:48:16.869Z,3.90
2023-04-19T11:49:30.249Z,3.80
2023-04-19T11:50:41.917Z,2.50
2023-04-19T11:51:44.115Z,3.50
2023-04-19T11:52:51.025Z,3.20
2023-04-19T11:53:53.213Z,3.10
2023-04-19T11:54:56.461Z,2.18
2023-04-19T11:56:07.013Z,3.20
2023-04-19T11:57:10.024Z,2.60
2023-04-19T11:58:27.911Z,2.80
2023-04-19T11:59:35.427Z,3.70
2023-04-19T12:00:37.886Z,2.80
2023-04-19T12:01:41.088Z,2.90
2023-04-19T12:02:44.981Z,2.20
2023-04-19T12:03:53.053Z,2.00
2023-04-19T12:04:56.247Z,1.90
2023-04-19T12:06:00.440Z,1.73
2023-04-19T12:07:04.520Z,2.40
2023-04-19T12:08:06.764Z,1.90
2023-04-19T12:09:08.794Z,2.20
2023-04-19T12:10:12.336Z,2.40
2023-04-19T12:11:16.349Z,2.60
2023-04-19T12:12:33.714Z,3.10
2023-04-19T12:13:37.145Z,2.90
2023-04-19T12:14:41.136Z,2.00
2023-04-19T12:15:44.833Z,3.40
2023-04-19T12:17:07.803Z,3.40
2023-04-19T12:18:11.030Z,2.80
2023-04-19T12:19:18.709Z,2.80
2023-04-19T12:20:35.735Z,2.80
2023-04-19T12:21:37.876Z,2.80
2023-04-19T12:22:40.393Z,2.60
2023-04-19T12:23:42.444Z,0.20
2023-04-19T12:24:46.517Z,2.89
2023-04-19T12:25:49.193Z,2.60
2023-04-19T12:28:04.361Z,3.20
2023-04-19T12:29:06.587Z,3.64
2023-04-19T12:30:09.256Z,2.90
2023-04-19T12:31:11.422Z,3.60
2023-04-19T12:32:13.751Z,2.90
2023-04-19T12:33:16.464Z,2.80
2023-04-19T12:34:18.626Z,2.80
2023-04-19T12:35:22.659Z,3.50
2023-04-19T12:36:24.940Z,2.90
2023-04-19T12:37:27.031Z,2.40
2023-04-19T12:38:29.505Z,2.90
2023-04-19T12:39:31.575Z,2.60
2023-04-19T12:40:34.362Z,4.00
2023-04-19T12:41:37.016Z,3.30
2023-04-19T12:42:39.686Z,3.20
2023-04-19T12:43:41.867Z,1.10
2023-04-19T12:44:44.397Z,4.00
2023-04-19T12:45:46.553Z,4.20
2023-04-19T12:46:49.203Z,3.80
2023-04-19T12:47:51.490Z,4.50
2023-04-19T12:48:54.158Z,3.60
2023-04-19T12:49:56.216Z,3.80
2023-04-19T12:50:58.575Z,3.60
2023-04-19T12:52:00.420Z,3.30
2023-04-19T12:53:03.094Z,3.50
2023-04-19T12:54:05.249Z,3.20
2023-04-19T12:55:08.646Z,4.50
2023-04-19T12:56:12.048Z,4.10
2023-04-19T12:57:14.819Z,3.40
2023-04-19T12:58:18.300Z,4.55
2023-04-19T12:59:20.507Z,3.60
2023-04-19T13:00:22.831Z,2.80
2023-04-19T13:01:25.556Z,2.60
2023-04-19T13:02:28.839Z,3.50
2023-04-19T13:03:31.373Z,3.50
2023-04-19T13:04:33.902Z,3.90
2023-04-19T13:05:36.049Z,2.60
2023-04-19T13:06:38.417Z,3.30
2023-04-19T13:07:40.749Z,3.60
2023-04-19T13:08:46.983Z,5.40
2023-04-19T13:09:47.493Z,3.60
2023-04-19T13:10:49.678Z,3.40
2023-04-19T13:11:51.949Z,3.10
2023-04-19T13:12:54.002Z,4.50
2023-04-19T13:13:56.211Z,4.00
2023-04-19T13:14:58.380Z,3.70
2023-04-19T13:16:00.509Z,5.00
2023-04-19T13:17:02.703Z,4.10
2023-04-19T13:18:04.916Z,3.70
2023-04-19T13:19:07.236Z,3.70
2023-04-19T13:20:10.456Z,5.55
2023-04-19T13:21:12.548Z,3.40
2023-04-19T13:22:15.383Z,5.50
2023-04-19T13:23:17.591Z,1.00
2023-04-19T13:24:19.754Z,3.90
2023-04-19T13:25:23.064Z,4.70
2023-04-19T13:26:25.730Z,6.10
2023-04-19T13:27:27.858Z,7.40
2023-04-19T13:28:30.576Z,12.50
2023-04-19T13:29:32.767Z,13.40
2023-04-19T13:30:35.041Z,9.00
2023-04-19T13:31:37.605Z,9.90
2023-04-19T13:32:39.751Z,6.70
2023-04-19T13:33:43.000Z,6.90
2023-04-19T13:34:45.374Z,5.10
2023-04-19T13:35:48.646Z,3.90
2023-04-19T13:36:51.500Z,4.40
2023-04-19T13:37:54.189Z,3.90
2023-04-19T13:38:56.461Z,4.40
2023-04-19T13:40:10.583Z,3.90
2023-04-19T13:41:03.679Z,4.40
2023-04-19T13:42:06.018Z,4.20
2023-04-19T13:43:08.226Z,4.70
2023-04-19T13:44:10.370Z,2.40
2023-04-19T13:45:13.138Z,3.50
2023-04-19T13:46:15.710Z,4.00
2023-04-19T13:47:17.849Z,5.00
2023-04-19T13:48:20.248Z,4.90
2023-04-19T13:49:22.394Z,1.20
2023-04-19T13:50:24.611Z,4.50
2023-04-19T13:51:31.203Z,5.20
2023-04-19T13:52:31.584Z,6.50
2023-04-19T13:53:33.750Z,9.80
2023-04-19T13:54:36.489Z,8.50
2023-04-19T13:55:39.028Z,14.20
2023-04-19T13:56:41.507Z,13.60
2023-04-19T13:57:43.572Z,14.80
2023-04-19T13:58:45.710Z,14.60
2023-04-19T13:59:48.192Z,16.11
2023-04-19T14:00:51.429Z,17.60
2023-04-19T14:01:54.399Z,11.30
2023-04-19T14:02:56.945Z,16.82
2023-04-19T14:03:59.993Z,19.30
2023-04-19T14:05:02.980Z,16.64
2023-04-19T14:06:05.539Z,17.20
2023-04-19T14:07:08.632Z,13.90
2023-04-19T14:08:10.895Z,7.82
2023-04-19T14:09:13.441Z,13.90
2023-04-19T14:10:17.053Z,13.36
2023-04-19T14:11:19.570Z,10.80
2023-04-19T14:12:21.839Z,11.40
2023-04-19T14:13:24.002Z,10.30
2023-04-19T14:14:27.001Z,9.10
2023-04-19T14:15:29.523Z,8.45
2023-04-19T14:16:32.142Z,6.20
2023-04-19T14:17:34.260Z,6.10
2023-04-19T14:18:36.996Z,4.00
2023-04-19T14:19:39.144Z,4.90
2023-04-19T14:20:41.406Z,3.00
2023-04-19T14:21:43.840Z,4.10
2023-04-19T14:22:46.559Z,4.10
2023-04-19T14:23:48.702Z,5.50
2023-04-19T14:24:51.202Z,4.80
2023-04-19T14:25:53.546Z,3.10
2023-04-19T14:27:09.710Z,3.10
2023-04-19T14:27:59.912Z,3.00
2023-04-19T14:29:02.595Z,3.70